Time;durP1;ratioP1;P1;durP2;ratioP2;P2;SDS_P1;SDS_P2;PMS_P1;PMS_P2;Temp;Humidity;BMP_temperature;BMP_pressure;BME280_temperature;BME280_humidity;BME280_pressure;Samples;Min_cycle;Max_cycle;Signal;HPM_P1;HPM_P2
2022/11/08 00:01:41;;;;;;;8.55;1.60;;;10.60;99.90;;;;;;4990832;28;20032;-69
2022/11/08 00:04:10;;;;;;;3.05;1.58;;;10.60;99.90;;;;;;4990640;28;20121;-70
2022/11/08 00:14:51;;;;;;;3.17;1.20;;;10.60;99.90;;;;;;4991429;28;20430;-71
2022/11/08 00:17:19;;;;;;;10.77;2.72;;;10.60;99.90;;;;;;4990613;28;20052;-70
2022/11/08 00:19:45;;;;;;;5.85;1.58;;;10.50;99.90;;;;;;4990644;28;20023;-70
2022/11/08 00:22:12;;;;;;;1.95;1.45;;;10.50;99.90;;;;;;4990749;28;20033;-70
2022/11/08 00:24:38;;;;;;;3.67;1.38;;;10.40;99.90;;;;;;4989865;28;20027;-70
2022/11/08 00:27:13;;;;;;;5.07;1.88;;;10.40;99.90;;;;;;4991266;28;20037;-69
2022/11/08 00:29:39;;;;;;;5.25;1.80;;;10.40;99.90;;;;;;4990568;28;20030;-70
2022/11/08 00:32:10;;;;;;;6.20;1.67;;;10.30;99.90;;;;;;4991568;28;20354;-70
2022/11/08 00:34:35;;;;;;;5.15;1.38;;;10.30;99.90;;;;;;4989926;28;20046;-70
2022/11/08 00:37:02;;;;;;;3.17;1.55;;;10.30;99.90;;;;;;4990478;28;20430;-70
2022/11/08 00:39:27;;;;;;;3.78;1.65;;;10.30;99.90;;;;;;4989923;28;20410;-69
2022/11/08 00:41:53;;;;;;;3.33;1.63;;;10.30;99.90;;;;;;4990117;28;20030;-69
2022/11/08 00:44:19;;;;;;;3.60;1.20;;;10.10;99.90;;;;;;4991292;28;20026;-69
2022/11/08 00:46:45;;;;;;;3.45;1.23;;;10.10;99.90;;;;;;4990052;28;20289;-70
2022/11/08 00:49:10;;;;;;;4.15;1.70;;;9.90;99.90;;;;;;4990195;28;20034;-70
2022/11/08 00:51:37;;;;;;;7.72;1.73;;;9.90;99.90;;;;;;4989908;28;20109;-70
2022/11/08 00:54:04;;;;;;;5.68;1.27;;;9.90;99.90;;;;;;4991311;28;20062;-70
2022/11/08 00:56:30;;;;;;;2.20;1.45;;;9.90;99.90;;;;;;4990122;28;20077;-70
2022/11/08 00:58:57;;;;;;;7.97;1.63;;;9.90;99.90;;;;;;4991030;28;20441;-70
2022/11/08 01:01:23;;;;;;;3.53;1.23;;;9.90;99.90;;;;;;4973799;28;20438;-70
2022/11/08 01:03:49;;;;;;;4.35;1.02;;;9.90;99.90;;;;;;4990979;28;20117;-69
2022/11/08 01:06:21;;;;;;;7.57;1.73;;;10.00;99.90;;;;;;4991312;28;20085;-70
2022/11/08 01:08:46;;;;;;;;;;;10.00;99.90;;;;;;4990416;28;20513;-69
2022/11/08 01:11:16;;;;;;;4.05;1.25;;;10.00;99.90;;;;;;4991072;28;19909;-70
2022/11/08 01:13:42;;;;;;;2.80;1.45;;;10.10;99.90;;;;;;4990894;28;20486;-70
2022/11/08 01:16:16;;;;;;;2.78;1.58;;;10.10;99.90;;;;;;4990970;28;20080;-70
2022/11/08 01:18:43;;;;;;;3.63;1.42;;;10.00;99.90;;;;;;4991064;28;20026;-70
2022/11/08 01:21:10;;;;;;;1.90;1.10;;;10.10;99.90;;;;;;4989639;28;20073;-69
2022/11/08 01:23:37;;;;;;;5.03;2.22;;;10.00;99.90;;;;;;4989726;28;20031;-69
2022/11/08 01:26:11;;;;;;;9.18;2.10;;;10.00;99.90;;;;;;4989506;28;20068;-69
2022/11/08 01:28:37;;;;;;;6.05;3.13;;;9.90;99.90;;;;;;4989530;28;20030;-69
2022/11/08 01:31:15;;;;;;;4.60;2.22;;;9.90;99.90;;;;;;4990969;28;20030;-70
2022/11/08 01:33:42;;;;;;;5.10;2.67;;;9.80;99.90;;;;;;4989835;28;20034;-70
2022/11/08 01:36:10;;;;;;;10.60;2.67;;;9.70;99.90;;;;;;4989430;28;20031;-70
2022/11/08 01:38:36;;;;;;;8.00;2.25;;;9.70;99.90;;;;;;4989593;28;20121;-70
2022/11/08 01:41:02;;;;;;;4.38;2.70;;;9.80;99.90;;;;;;4991079;28;20038;-69
2022/11/08 01:43:48;;;;;;;3.65;1.80;;;9.80;99.90;;;;;;4990687;28;20530;-69
2022/11/08 01:46:43;;;;;;;6.88;2.63;;;9.70;99.90;;;;;;4989783;28;20070;-69
2022/11/08 01:49:33;;;;;;;7.72;2.22;;;9.80;99.90;;;;;;4987639;28;20030;-69
2022/11/08 01:52:18;;;;;;;3.25;1.65;;;9.80;99.90;;;;;;4990649;28;20025;-69
2022/11/08 01:54:59;;;;;;;4.07;2.30;;;9.80;99.90;;;;;;4989535;28;20026;-69
2022/11/08 01:57:41;;;;;;;9.68;2.50;;;9.80;99.90;;;;;;4994217;28;20042;-69
2022/11/08 02:00:11;;;;;;;6.47;2.13;;;9.80;99.90;;;;;;4993109;28;20034;-70
2022/11/08 02:02:40;;;;;;;5.13;2.40;;;9.80;99.90;;;;;;4992377;28;20031;-70
2022/11/08 02:05:23;;;;;;;3.95;2.00;;;9.60;99.90;;;;;;4986265;28;20034;-70
2022/11/08 02:08:03;;;;;;;3.70;2.22;;;9.60;99.90;;;;;;4986857;28;20050;-70
2022/11/08 02:10:37;;;;;;;8.07;2.13;;;9.50;99.90;;;;;;4984274;28;20058;-70
2022/11/08 02:13:07;;;;;;;4.72;2.63;;;9.40;99.90;;;;;;4973218;28;20058;-70
2022/11/08 02:15:33;;;;;;;8.38;2.10;;;9.40;99.90;;;;;;4980295;28;20042;-69
2022/11/08 02:17:59;;;;;;;6.75;2.35;;;9.30;99.90;;;;;;4992336;28;20034;-69
2022/11/08 02:20:25;;;;;;;3.25;2.00;;;9.30;99.90;;;;;;4993679;28;20098;-69
2022/11/08 02:23:17;;;;;;;4.65;1.65;;;9.30;99.90;;;;;;4992363;28;20045;-69
2022/11/08 02:25:42;;;;;;;5.65;1.52;;;9.30;99.90;;;;;;4996945;23;20052;-69
2022/11/08 02:28:08;;;;;;;4.63;1.77;;;9.30;99.90;;;;;;5003924;28;20033;-69
2022/11/08 02:30:36;;;;;;;3.42;1.83;;;9.20;99.90;;;;;;5013067;28;20390;-70
2022/11/08 02:33:20;;;;;;;4.75;1.42;;;9.20;99.90;;;;;;5011820;28;20037;-69
2022/11/08 02:35:54;;;;;;;4.97;2.25;;;9.20;99.90;;;;;;5011709;28;20393;-70
2022/11/08 02:38:22;;;;;;;6.88;2.17;;;9.20;99.90;;;;;;5011864;28;20099;-69
2022/11/08 02:40:54;;;;;;;4.50;2.45;;;9.20;99.90;;;;;;5007078;28;20080;-69
2022/11/08 02:43:22;;;;;;;5.53;2.17;;;9.10;99.90;;;;;;4993357;28;20038;-69
2022/11/08 02:45:49;;;;;;;8.82;1.73;;;9.00;99.90;;;;;;4991984;28;20101;-70
2022/11/08 02:48:16;;;;;;;4.22;1.92;;;9.00;99.90;;;;;;4991946;28;20029;-70
2022/11/08 02:50:41;;;;;;;4.53;1.48;;;9.10;99.90;;;;;;4993136;28;20034;-69
2022/11/08 02:53:08;;;;;;;5.57;2.58;;;9.00;99.90;;;;;;4991970;28;20219;-70
2022/11/08 02:55:34;;;;;;;9.32;2.08;;;9.00;99.90;;;;;;4992796;28;20058;-69
2022/11/08 02:58:01;;;;;;;4.20;1.38;;;9.00;99.90;;;;;;4981082;28;20038;-69
2022/11/08 03:00:28;;;;;;;6.88;2.00;;;9.00;99.90;;;;;;4972650;28;20038;-70
2022/11/08 03:02:55;;;;;;;4.30;2.72;;;9.00;99.90;;;;;;4988290;28;20558;-69
2022/11/08 03:05:22;;;;;;;2.28;1.58;;;8.90;99.90;;;;;;4988353;28;20038;-70
2022/11/08 03:07:48;;;;;;;4.72;2.13;;;8.90;99.90;;;;;;4971063;28;20431;-70
2022/11/08 03:10:15;;;;;;;1.45;0.95;;;8.80;99.90;;;;;;4972355;28;20027;-70
2022/11/08 03:12:41;;;;;;;4.50;1.55;;;8.90;99.90;;;;;;4988348;28;20536;-70
2022/11/08 03:15:09;;;;;;;2.05;1.10;;;8.90;99.90;;;;;;4977778;28;20029;-69
2022/11/08 03:17:36;;;;;;;3.10;1.58;;;8.80;99.90;;;;;;4991295;28;20084;-69
2022/11/08 03:20:03;;;;;;;8.18;2.60;;;8.80;99.90;;;;;;4991591;28;20643;-69
2022/11/08 03:22:28;;;;;;;9.43;3.38;;;8.70;99.90;;;;;;4991301;28;20054;-70
2022/11/08 03:24:54;;;;;;;4.93;2.17;;;8.80;99.90;;;;;;4992330;28;20070;-70
2022/11/08 03:27:20;;;;;;;7.50;1.63;;;8.70;99.90;;;;;;4985848;28;20100;-70
2022/11/08 03:29:46;;;;;;;6.25;2.00;;;8.70;99.90;;;;;;4988220;28;20038;-70
2022/11/08 03:32:13;;;;;;;2.53;1.67;;;8.70;99.90;;;;;;4973127;28;20054;-70
2022/11/08 03:34:39;;;;;;;10.18;1.85;;;8.70;99.90;;;;;;4972603;28;20462;-70
2022/11/08 03:37:07;;;;;;;2.47;1.55;;;8.70;99.90;;;;;;4987793;28;20065;-69
2022/11/08 03:39:33;;;;;;;3.15;1.30;;;8.60;99.90;;;;;;4972795;28;20479;-70
2022/11/08 03:42:01;;;;;;;9.27;2.30;;;8.60;99.90;;;;;;4972917;28;20118;-70
2022/11/08 03:44:28;;;;;;;5.60;2.08;;;8.60;99.90;;;;;;4972482;28;20026;-70
2022/11/08 03:46:54;;;;;;;2.80;1.55;;;8.60;99.90;;;;;;4975344;28;20046;-69
2022/11/08 03:49:20;;;;;;;2.17;1.30;;;8.50;99.90;;;;;;4972983;28;20070;-69
2022/11/08 03:51:46;;;;;;;3.17;1.92;;;8.50;99.90;;;;;;4972670;28;20059;-70
2022/11/08 03:54:12;;;;;;;6.65;1.88;;;8.50;99.90;;;;;;4972418;28;20037;-70
2022/11/08 03:56:37;;;;;;;4.13;1.33;;;8.50;99.90;;;;;;4972671;28;20023;-69
2022/11/08 03:59:03;;;;;;;5.40;1.08;;;8.50;99.90;;;;;;4972462;28;20498;-70
2022/11/08 04:01:29;;;;;;;4.60;1.83;;;8.50;99.90;;;;;;4972534;28;20035;-69
2022/11/08 04:03:55;;;;;;;3.88;1.92;;;8.50;99.90;;;;;;4976472;28;20097;-69
2022/11/08 04:06:21;;;;;;;11.07;2.00;;;8.40;99.90;;;;;;4975280;28;20044;-69
2022/11/08 04:08:46;;;;;;;3.60;1.38;;;8.30;99.90;;;;;;4990213;28;20055;-69
2022/11/08 04:16:41;;;;;;;1.75;1.20;;;8.20;99.90;;;;;;4990837;28;20512;-70
2022/11/08 04:21:53;;;;;;;4.43;1.60;;;8.20;99.90;;;;;;4972389;28;20038;-70
2022/11/08 04:24:19;;;;;;;1.58;1.27;;;8.30;99.90;;;;;;4970379;28;20030;-70
2022/11/08 04:26:45;;;;;;;0.95;0.60;;;8.30;99.90;;;;;;4970433;28;20486;-70
2022/11/08 04:29:12;;;;;;;3.72;1.50;;;8.40;99.90;;;;;;4971737;28;20505;-71
2022/11/08 04:31:38;;;;;;;2.08;1.20;;;8.40;99.90;;;;;;4971863;28;20454;-71
2022/11/08 04:34:04;;;;;;;6.22;0.80;;;8.50;99.90;;;;;;4971384;28;20027;-71
2022/11/08 04:36:30;;;;;;;1.25;1.10;;;8.50;99.90;;;;;;4976202;28;20022;-71
2022/11/08 04:38:56;;;;;;;2.45;1.65;;;8.40;99.90;;;;;;4990062;28;20057;-71
2022/11/08 04:41:24;;;;;;;3.22;1.02;;;8.40;99.90;;;;;;4991277;28;20470;-71
2022/11/08 04:43:52;;;;;;;2.67;1.77;;;8.40;99.90;;;;;;4989699;28;20037;-70
2022/11/08 04:46:22;;;;;;;3.35;1.63;;;8.40;99.90;;;;;;4991119;28;20031;-71
2022/11/08 04:48:54;;;;;;;2.03;1.20;;;8.30;99.90;;;;;;4989901;28;20058;-70
2022/11/08 04:51:29;;;;;;;4.90;0.98;;;8.50;99.90;;;;;;4991323;28;20026;-70
2022/11/08 04:53:56;;;;;;;2.72;1.38;;;8.60;99.90;;;;;;4990743;28;20022;-71
2022/11/08 04:56:23;;;;;;;3.65;1.77;;;8.80;99.90;;;;;;4990010;28;20117;-71
2022/11/08 04:58:52;;;;;;;7.05;2.53;;;8.90;99.90;;;;;;4971287;28;20121;-71
2022/11/08 05:01:21;;;;;;;3.15;1.48;;;9.00;99.90;;;;;;4970348;28;20062;-71
2022/11/08 05:03:50;;;;;;;8.10;1.98;;;9.10;99.90;;;;;;4986445;28;20030;-71
2022/11/08 05:06:20;;;;;;;5.95;2.45;;;9.20;99.90;;;;;;4970333;28;20375;-71
2022/11/08 05:08:46;;;;;;;3.10;1.60;;;9.30;99.90;;;;;;4970105;28;20122;-70
2022/11/08 05:11:19;;;;;;;5.82;2.60;;;9.30;99.90;;;;;;4995334;28;20463;-70
2022/11/08 05:13:45;;;;;;;5.60;1.45;;;9.30;99.90;;;;;;4989424;28;20065;-70
2022/11/08 05:16:18;;;;;;;5.78;2.70;;;9.20;99.90;;;;;;4974916;28;20121;-71
2022/11/08 05:18:44;;;;;;;3.75;1.83;;;9.20;99.90;;;;;;4970171;28;20053;-70
2022/11/08 05:24:01;;;;;;;3.00;1.30;;;9.10;99.90;;;;;;4970192;28;20043;-70
2022/11/08 05:26:28;;;;;;;2.63;1.63;;;9.00;99.90;;;;;;4970070;28;20495;-71
2022/11/08 05:28:53;;;;;;;2.72;1.40;;;9.00;99.90;;;;;;4990528;28;20030;-71
2022/11/08 05:31:19;;;;;;;1.92;1.17;;;9.00;99.90;;;;;;4976179;28;20077;-71
2022/11/08 05:33:45;;;;;;;5.40;2.05;;;9.00;99.90;;;;;;4992783;28;20493;-70
2022/11/08 05:36:15;;;;;;;4.25;1.17;;;9.00;99.90;;;;;;4976940;28;20489;-70
2022/11/08 05:38:41;;;;;;;0.98;0.65;;;9.10;99.90;;;;;;4994483;28;20426;-70
2022/11/08 05:41:16;;;;;;;2.45;1.25;;;9.10;99.90;;;;;;4994293;28;20046;-70
2022/11/08 05:43:45;;;;;;;2.75;1.25;;;9.00;99.90;;;;;;4994038;28;20045;-70
2022/11/08 05:46:11;;;;;;;1.52;1.10;;;9.00;99.90;;;;;;4992897;28;20406;-71
2022/11/08 05:48:37;;;;;;;2.15;1.20;;;9.00;99.90;;;;;;4992756;28;20060;-70
2022/11/08 05:51:03;;;;;;;1.23;0.68;;;9.00;99.90;;;;;;4994203;28;20030;-70
2022/11/08 05:53:30;;;;;;;1.67;1.15;;;9.00;99.90;;;;;;4993638;28;20034;-70
2022/11/08 05:55:58;;;;;;;1.90;1.17;;;9.00;99.90;;;;;;4989225;28;20077;-70
2022/11/08 05:58:24;;;;;;;3.10;0.90;;;9.00;99.90;;;;;;4994307;28;20034;-71
2022/11/08 06:00:50;;;;;;;1.70;0.90;;;9.00;99.90;;;;;;4992862;28;20669;-71
2022/11/08 06:03:16;;;;;;;3.58;1.45;;;9.00;99.90;;;;;;4994067;28;20042;-70
2022/11/08 06:05:41;;;;;;;7.68;2.00;;;9.00;99.90;;;;;;4994090;28;20034;-70
2022/11/08 06:08:08;;;;;;;2.47;1.48;;;9.10;99.90;;;;;;4994038;28;20031;-70
2022/11/08 06:10:34;;;;;;;1.58;0.70;;;9.20;99.90;;;;;;4988605;28;20019;-71
2022/11/08 06:13:00;;;;;;;3.47;1.27;;;9.10;99.90;;;;;;4974332;28;20108;-71
2022/11/08 06:15:26;;;;;;;3.20;1.42;;;9.10;99.90;;;;;;4982430;28;20045;-70
2022/11/08 06:17:52;;;;;;;2.92;1.60;;;9.00;99.90;;;;;;4993410;28;20492;-69
2022/11/08 06:20:18;;;;;;;1.63;0.93;;;9.00;99.90;;;;;;4991313;28;20042;-70
2022/11/08 06:22:43;;;;;;;3.72;1.73;;;8.90;99.90;;;;;;4993445;28;20084;-69
2022/11/08 06:25:09;;;;;;;1.98;1.05;;;8.80;99.90;;;;;;4993088;28;20045;-71
2022/11/08 06:27:36;;;;;;;6.60;1.33;;;8.90;99.90;;;;;;4992385;28;20042;-68
2022/11/08 06:30:03;;;;;;;1.60;0.93;;;9.00;99.90;;;;;;4993218;28;20139;-69
2022/11/08 06:32:29;;;;;;;2.88;1.20;;;9.00;99.90;;;;;;4990195;28;20038;-69
2022/11/08 06:34:55;;;;;;;2.75;1.27;;;9.00;99.90;;;;;;4976436;28;20422;-70
2022/11/08 06:37:21;;;;;;;2.13;0.88;;;9.10;99.90;;;;;;4973762;28;20045;-70
2022/11/08 06:39:46;;;;;;;5.18;1.42;;;9.10;99.90;;;;;;4983771;28;20069;-69
2022/11/08 06:42:13;;;;;;;7.90;2.65;;;9.10;99.90;;;;;;4974813;28;20031;-69
2022/11/08 06:44:38;;;;;;;2.13;1.20;;;9.20;99.90;;;;;;4973352;28;20114;-70
2022/11/08 06:47:04;;;;;;;1.63;0.85;;;9.30;99.90;;;;;;4955083;28;20158;-69
2022/11/08 06:49:30;;;;;;;9.90;0.93;;;9.30;99.90;;;;;;4981609;28;20039;-69
2022/11/08 06:51:56;;;;;;;3.10;1.30;;;9.30;99.90;;;;;;4972079;28;20041;-68
2022/11/08 06:54:21;;;;;;;5.22;2.03;;;9.30;99.90;;;;;;4973479;28;20502;-69
2022/11/08 06:56:47;;;;;;;1.55;1.10;;;9.30;99.90;;;;;;4975493;28;20027;-68
2022/11/08 06:59:13;;;;;;;3.53;2.17;;;9.30;99.90;;;;;;4992842;28;20069;-69
2022/11/08 07:01:38;;;;;;;10.55;1.58;;;9.30;99.90;;;;;;4968371;28;20061;-69
2022/11/08 07:04:04;;;;;;;2.55;1.15;;;9.30;99.90;;;;;;4991529;28;20482;-69
2022/11/08 07:06:31;;;;;;;5.43;2.45;;;9.30;99.90;;;;;;4988818;28;20034;-68
2022/11/08 07:08:56;;;;;;;4.90;1.50;;;9.30;99.90;;;;;;4972392;28;20045;-70
2022/11/08 07:11:22;;;;;;;2.92;1.95;;;9.40;99.90;;;;;;4983316;28;20382;-70
2022/11/08 07:13:48;;;;;;;1.48;0.90;;;9.40;99.90;;;;;;4991460;28;20030;-69
2022/11/08 07:16:14;;;;;;;2.75;1.50;;;9.40;99.90;;;;;;4991486;28;20031;-70
2022/11/08 07:18:40;;;;;;;2.50;1.50;;;9.40;99.90;;;;;;4991308;28;20096;-71
2022/11/08 07:21:06;;;;;;;1.05;0.80;;;9.50;99.90;;;;;;4991404;28;20026;-70
2022/11/08 07:23:32;;;;;;;1.90;1.13;;;9.50;99.90;;;;;;4992332;28;20033;-71
2022/11/08 07:26:03;;;;;;;2.58;1.00;;;9.60;99.90;;;;;;4992086;28;20041;-71
2022/11/08 07:28:30;;;;;;;1.27;0.75;;;9.60;99.90;;;;;;4990845;28;20069;-70
2022/11/08 07:31:03;;;;;;;1.38;0.85;;;9.60;99.90;;;;;;4991567;28;20034;-70
2022/11/08 07:33:28;;;;;;;1.98;1.10;;;9.60;99.90;;;;;;4992334;28;20030;-70
2022/11/08 07:35:55;;;;;;;2.08;1.00;;;9.70;99.90;;;;;;4992270;28;20023;-70
2022/11/08 07:38:21;;;;;;;12.45;1.48;;;9.70;99.90;;;;;;4990606;28;20038;-69
2022/11/08 07:40:47;;;;;;;3.67;1.33;;;9.80;99.90;;;;;;4990974;28;20453;-70
2022/11/08 07:43:14;;;;;;;3.35;0.80;;;9.80;99.90;;;;;;4973727;28;20189;-71
2022/11/08 07:45:40;;;;;;;2.60;1.15;;;9.90;99.90;;;;;;4971269;28;20081;-71
2022/11/08 07:48:09;;;;;;;1.58;0.98;;;10.00;99.90;;;;;;4955534;28;20046;-70
2022/11/08 07:50:35;;;;;;;1.83;1.05;;;10.00;99.90;;;;;;4955555;28;20066;-68
2022/11/08 07:53:01;;;;;;;5.70;1.15;;;10.00;99.90;;;;;;4970909;28;20113;-72
2022/11/08 07:55:27;;;;;;;1.48;1.00;;;10.00;99.90;;;;;;4972337;28;20027;-70
2022/11/08 07:58:00;;;;;;;2.15;1.00;;;10.00;99.90;;;;;;4971424;28;20041;-70
2022/11/08 08:00:28;;;;;;;4.00;1.05;;;10.10;99.90;;;;;;4971282;28;20077;-70
2022/11/08 08:03:02;;;;;;;4.43;1.23;;;10.20;99.90;;;;;;4972618;28;20027;-71
2022/11/08 08:05:35;;;;;;;2.88;1.20;;;10.30;99.90;;;;;;4972170;28;20108;-71
2022/11/08 08:08:01;;;;;;;1.45;0.90;;;10.30;99.90;;;;;;4987145;28;20122;-72
2022/11/08 08:10:28;;;;;;;3.75;1.30;;;10.40;99.90;;;;;;4974307;28;20081;-72
2022/11/08 08:12:55;;;;;;;3.50;1.45;;;10.40;99.90;;;;;;4974603;28;20050;-72
2022/11/08 08:15:22;;;;;;;3.35;1.23;;;10.50;99.90;;;;;;5004583;28;20490;-72
2022/11/08 08:17:48;;;;;;;1.77;1.30;;;10.60;99.90;;;;;;4983656;28;20045;-72
2022/11/08 08:20:14;;;;;;;2.83;1.08;;;10.70;99.90;;;;;;4990436;28;20046;-72
2022/11/08 08:22:45;;;;;;;6.82;2.20;;;10.80;99.90;;;;;;4983053;28;20093;-72
2022/11/08 08:25:11;;;;;;;;;;;10.80;99.90;;;;;;4983323;28;20045;-72
2022/11/08 08:27:37;;;;;;;1.95;1.08;;;10.80;99.90;;;;;;5007235;23;20483;-70
2022/11/08 08:30:04;;;;;;;1.92;1.30;;;10.90;99.90;;;;;;4990804;28;20026;-70
2022/11/08 08:32:30;;;;;;;1.70;1.00;;;11.00;99.90;;;;;;4989021;28;20030;-70
2022/11/08 08:34:56;;;;;;;1.45;0.90;;;11.10;99.90;;;;;;4989683;28;20101;-70
2022/11/08 08:37:21;;;;;;;1.90;1.02;;;11.20;99.90;;;;;;5005452;28;20073;-70
2022/11/08 08:39:47;;;;;;;2.13;1.05;;;11.30;99.90;;;;;;5006729;28;20080;-70
2022/11/08 08:42:13;;;;;;;2.95;1.08;;;11.40;99.90;;;;;;4988678;28;20069;-71
2022/11/08 08:44:39;;;;;;;2.60;1.13;;;11.50;99.90;;;;;;4989916;28;20030;-71
2022/11/08 08:47:04;;;;;;;3.00;1.52;;;11.70;99.90;;;;;;4986074;28;20030;-71
2022/11/08 08:49:30;;;;;;;3.10;1.52;;;11.70;99.90;;;;;;4986524;28;20065;-71
2022/11/08 08:51:56;;;;;;;11.20;1.77;;;11.80;99.90;;;;;;4986934;28;20053;-71
2022/11/08 08:54:22;;;;;;;14.40;3.38;;;11.90;99.90;;;;;;4984968;28;20022;-71
2022/11/08 08:56:48;;;;;;;4.25;1.35;;;11.80;99.90;;;;;;4988606;28;20038;-71
2022/11/08 08:59:14;;;;;;;4.15;1.85;;;11.90;99.90;;;;;;4988889;28;20038;-70
2022/11/08 09:01:40;;;;;;;4.18;1.35;;;11.90;99.90;;;;;;4973791;28;20565;-71
2022/11/08 09:04:05;;;;;;;2.63;1.55;;;12.10;99.90;;;;;;4989596;28;20153;-70
2022/11/08 09:06:31;;;;;;;7.82;2.55;;;12.20;99.90;;;;;;4975685;28;20121;-71
2022/11/08 09:08:57;;;;;;;2.53;1.35;;;12.30;99.90;;;;;;4977629;28;20034;-72
2022/11/08 09:11:23;;;;;;;2.38;1.08;;;12.30;99.90;;;;;;4976709;28;20045;-71
2022/11/08 09:13:49;;;;;;;1.35;0.88;;;12.20;99.90;;;;;;4994556;28;20029;-71
2022/11/08 09:16:15;;;;;;;1.75;0.88;;;12.20;99.90;;;;;;4977273;28;20058;-71
2022/11/08 09:18:41;;;;;;;2.63;0.85;;;12.10;99.90;;;;;;4992780;28;20696;-70
2022/11/08 09:21:07;;;;;;;9.77;1.25;;;12.10;99.90;;;;;;4993833;28;20033;-71
2022/11/08 09:23:33;;;;;;;2.97;0.95;;;12.20;99.90;;;;;;4993232;28;20033;-70
2022/11/08 09:26:02;;;;;;;8.50;0.88;;;12.40;99.90;;;;;;4976318;28;20030;-70
2022/11/08 09:28:32;;;;;;;2.67;0.98;;;12.50;99.90;;;;;;4977164;28;20085;-72
2022/11/08 09:31:09;;;;;;;4.68;0.90;;;12.60;99.90;;;;;;4977549;28;20034;-72
2022/11/08 09:33:37;;;;;;;2.20;1.00;;;12.80;99.90;;;;;;4993158;28;20045;-70
2022/11/08 09:36:05;;;;;;;2.95;1.35;;;12.90;99.90;;;;;;4993708;28;20602;-70
2022/11/08 09:38:32;;;;;;;2.30;1.25;;;13.10;99.90;;;;;;4976396;28;20034;-71
2022/11/08 09:41:03;;;;;;;3.22;1.27;;;13.20;99.90;;;;;;4976691;28;20042;-72
2022/11/08 09:43:52;;;;;;;3.83;0.65;;;13.40;99.90;;;;;;4993906;28;20173;-72
2022/11/08 09:46:33;;;;;;;3.50;0.77;;;13.90;99.90;;;;;;4968239;28;20575;-72
2022/11/08 09:49:01;;;;;;;2.63;0.73;;;15.30;99.90;;;;;;4977610;28;20092;-72
2022/11/08 09:51:30;;;;;;;2.45;1.17;;;16.10;99.90;;;;;;4975939;28;20035;-72
2022/11/08 09:53:58;;;;;;;1.75;0.90;;;16.30;99.90;;;;;;4992560;28;20030;-71
2022/11/08 09:56:30;;;;;;;4.38;1.42;;;16.50;99.90;;;;;;4991985;28;20077;-71
2022/11/08 09:59:07;;;;;;;2.22;0.70;;;15.90;99.90;;;;;;4990580;28;20034;-71
2022/11/08 10:01:35;;;;;;;2.35;0.68;;;16.30;99.90;;;;;;4992876;28;20038;-71
2022/11/08 10:04:27;;;;;;;2.85;1.15;;;16.10;99.90;;;;;;4988662;28;20030;-72
2022/11/08 10:07:22;;;;;;;1.52;0.70;;;16.20;99.90;;;;;;4987093;28;20124;-70
2022/11/08 10:10:21;;;;;;;2.95;1.80;;;16.70;99.90;;;;;;4992941;28;20045;-67
2022/11/08 10:13:11;;;;;;;2.03;1.00;;;17.80;99.90;;;;;;4974568;28;20722;-67
2022/11/08 10:16:12;;;;;;;1.40;0.70;;;17.20;99.90;;;;;;4972902;28;20062;-67
2022/11/08 10:18:59;;;;;;;4.22;0.52;;;17.30;99.90;;;;;;4974225;28;20061;-68
2022/11/08 10:22:08;;;;;;;1.02;0.50;;;17.80;99.90;;;;;;4977003;28;20038;-67
2022/11/08 10:25:03;;;;;;;5.82;1.25;;;17.20;99.90;;;;;;4993515;28;20035;-67
2022/11/08 10:27:41;;;;;;;2.28;0.65;;;18.10;99.60;;;;;;4991473;28;20141;-68
2022/11/08 10:30:33;;;;;;;3.63;1.02;;;17.80;99.90;;;;;;4992281;28;20505;-68
2022/11/08 10:33:00;;;;;;;3.13;0.95;;;18.40;98.50;;;;;;4992613;28;20026;-67
2022/11/08 10:35:53;;;;;;;4.90;1.02;;;17.10;99.90;;;;;;4993969;28;20038;-68
2022/11/08 10:38:29;;;;;;;2.60;1.15;;;16.90;99.90;;;;;;4991810;28;20065;-67
2022/11/08 10:41:24;;;;;;;7.97;1.05;;;16.50;99.90;;;;;;4991736;28;20026;-67
2022/11/08 10:44:15;;;;;;;1.17;1.00;;;17.00;99.90;;;;;;4992769;28;20085;-67
2022/11/08 10:46:54;;;;;;;4.82;1.10;;;17.50;99.90;;;;;;4993549;28;20468;-67
2022/11/08 10:49:26;;;;;;;2.67;1.23;;;17.40;99.90;;;;;;4992996;28;20093;-67
2022/11/08 10:51:56;;;;;;;2.25;0.90;;;18.20;99.00;;;;;;4992121;28;20495;-67
2022/11/08 10:54:44;;;;;;;4.70;1.17;;;17.50;99.90;;;;;;4991384;28;20111;-68
2022/11/08 10:57:31;;;;;;;1.50;0.98;;;18.00;99.90;;;;;;4991748;28;20084;-69
2022/11/08 11:00:14;;;;;;;3.85;0.98;;;17.90;99.70;;;;;;4982339;28;20609;-66
2022/11/08 11:02:40;;;;;;;1.83;0.90;;;18.20;98.80;;;;;;4992996;28;20065;-66
2022/11/08 11:05:16;;;;;;;1.90;0.88;;;17.90;99.90;;;;;;4991539;28;20117;-66
2022/11/08 11:08:02;;;;;;;3.20;1.10;;;17.80;99.70;;;;;;4992633;28;20034;-66
2022/11/08 11:10:36;;;;;;;4.05;1.02;;;17.30;99.90;;;;;;4991676;28;20037;-67
2022/11/08 11:13:31;;;;;;;4.00;1.42;;;18.20;99.80;;;;;;4992555;28;20031;-66
2022/11/08 11:16:02;;;;;;;10.43;1.67;;;18.20;99.90;;;;;;4979409;28;20050;-66
2022/11/08 11:18:33;;;;;;;2.42;0.80;;;18.50;98.10;;;;;;4992842;28;20882;-66
2022/11/08 11:21:04;;;;;;;7.15;1.27;;;19.70;96.50;;;;;;4992252;28;20070;-66
2022/11/08 11:23:42;;;;;;;0.90;0.68;;;19.30;97.00;;;;;;4992273;28;20521;-66
2022/11/08 11:26:38;;;;;;;4.55;1.08;;;19.90;95.20;;;;;;4991316;28;20073;-66
2022/11/08 11:29:04;;;;;;;4.75;1.05;;;20.10;96.30;;;;;;4990609;28;20034;-66
2022/11/08 11:31:38;;;;;;;5.68;1.00;;;20.80;93.60;;;;;;4992467;28;20120;-66
2022/11/08 11:34:18;;;;;;;2.50;0.85;;;19.80;94.70;;;;;;4992219;28;20046;-66
2022/11/08 11:37:09;;;;;;;3.22;0.80;;;18.70;96.10;;;;;;4992447;28;20089;-66
2022/11/08 11:40:01;;;;;;;1.27;0.70;;;18.70;96.20;;;;;;4992402;28;20549;-66
2022/11/08 11:42:58;;;;;;;1.88;0.90;;;17.40;98.20;;;;;;4991060;28;20045;-65
2022/11/08 11:45:54;;;;;;;1.90;0.75;;;16.70;99.80;;;;;;4965183;28;20042;-65
2022/11/08 11:48:30;;;;;;;2.10;1.02;;;16.40;99.90;;;;;;4991092;28;20034;-65
2022/11/08 11:50:56;;;;;;;1.70;0.95;;;16.40;99.90;;;;;;4991998;28;20041;-64
2022/11/08 11:53:35;;;;;;;4.13;1.73;;;16.10;99.90;;;;;;4992044;28;20429;-65
2022/11/08 11:56:42;;;;;;;1.80;0.73;;;15.70;99.90;;;;;;4990481;28;20034;-65
2022/11/08 11:59:38;;;;;;;3.05;1.60;;;15.70;99.90;;;;;;4972428;28;20121;-66
2022/11/08 12:02:41;;;;;;;3.63;1.15;;;15.80;99.90;;;;;;4971367;28;20442;-66
2022/11/08 12:05:43;;;;;;;2.15;1.15;;;15.70;99.90;;;;;;4980797;28;20030;-66
2022/11/08 12:08:37;;;;;;;2.00;0.85;;;15.60;99.90;;;;;;4988284;28;20077;-66
2022/11/08 12:11:46;;;;;;;12.75;1.42;;;15.60;99.90;;;;;;4991400;28;20022;-66
2022/11/08 12:14:42;;;;;;;2.40;1.00;;;15.60;99.90;;;;;;4991511;28;20449;-66
2022/11/08 12:17:47;;;;;;;18.25;0.90;;;15.80;99.90;;;;;;4990357;28;20030;-65
2022/11/08 12:20:34;;;;;;;4.65;1.30;;;16.20;99.90;;;;;;4961007;28;20042;-66
2022/11/08 12:23:23;;;;;;;2.05;0.90;;;16.40;99.90;;;;;;4990508;28;20034;-66
2022/11/08 12:26:28;;;;;;;1.80;0.82;;;16.40;99.90;;;;;;4993489;28;20371;-67
2022/11/08 12:29:26;;;;;;;2.00;0.70;;;16.40;99.90;;;;;;4991188;28;20494;-66
2022/11/08 12:32:17;;;;;;;1.27;0.63;;;16.40;99.90;;;;;;4990125;28;20073;-66
2022/11/08 12:35:09;;;;;;;2.03;0.52;;;16.30;99.90;;;;;;4991192;28;20088;-66
2022/11/08 12:38:31;;;;;;;3.80;1.08;;;16.00;99.90;;;;;;4991090;28;20049;-66
2022/11/08 12:41:07;;;;;;;1.23;0.50;;;15.90;99.90;;;;;;4991157;28;20030;-66
2022/11/08 12:43:59;;;;;;;1.05;0.50;;;16.00;99.90;;;;;;4990790;28;20037;-67
2022/11/08 12:46:31;;;;;;;0.70;0.57;;;15.90;99.90;;;;;;4991186;28;20077;-67
2022/11/08 12:49:50;;;;;;;2.78;0.90;;;15.80;99.90;;;;;;4990704;28;20030;-67
2022/11/08 12:52:43;;;;;;;2.45;0.70;;;15.80;99.90;;;;;;4989338;28;20569;-67
2022/11/08 12:55:24;;;;;;;1.45;1.00;;;16.00;99.90;;;;;;4989854;28;20026;-66
2022/11/08 12:57:53;;;;;;;1.48;0.63;;;16.10;99.90;;;;;;4989923;28;20076;-66
2022/11/08 13:00:19;;;;;;;5.20;0.77;;;16.00;99.90;;;;;;4989673;28;20065;-66
2022/11/08 13:03:27;;;;;;;2.33;0.60;;;16.00;99.90;;;;;;4990891;28;20039;-66
2022/11/08 13:06:13;;;;;;;0.90;0.70;;;15.90;99.90;;;;;;4977336;28;20042;-66
2022/11/08 13:09:25;;;;;;;1.35;0.73;;;15.90;99.90;;;;;;4989905;28;20498;-66
2022/11/08 13:12:23;;;;;;;5.78;1.33;;;15.90;99.90;;;;;;4990718;28;20035;-67
2022/11/08 13:14:49;;;;;;;1.60;0.50;;;16.00;99.90;;;;;;4990649;28;20033;-67
2022/11/08 13:17:21;;;;;;;1.90;0.73;;;16.20;99.90;;;;;;4989358;28;20488;-67
2022/11/08 13:19:50;;;;;;;1.08;0.88;;;16.30;99.90;;;;;;4989494;28;20031;-66
2022/11/08 13:22:31;;;;;;;1.90;0.70;;;16.50;99.90;;;;;;4990920;28;20050;-66
2022/11/08 13:25:20;;;;;;;1.75;0.60;;;17.00;99.90;;;;;;4990593;28;20041;-66
2022/11/08 13:27:47;;;;;;;1.38;0.82;;;17.20;99.90;;;;;;4982373;28;20050;-67
2022/11/08 13:30:15;;;;;;;2.20;0.90;;;17.30;99.90;;;;;;4989800;28;20022;-66
2022/11/08 13:32:59;;;;;;;0.88;0.55;;;17.10;99.90;;;;;;4989263;28;20039;-66
2022/11/08 13:36:24;;;;;;;0.93;0.60;;;17.00;99.90;;;;;;4990213;28;20121;-67
2022/11/08 13:38:54;;;;;;;1.98;1.33;;;17.10;99.90;;;;;;4977227;28;20393;-66
2022/11/08 13:41:23;;;;;;;2.30;0.90;;;17.10;99.90;;;;;;4989387;28;20038;-66